createdAt,value
2022-09-03T00:01:50.885Z,68.92
2022-09-03T00:04:25.787Z,69.38
2022-09-03T00:07:03.245Z,69.13
2022-09-03T00:09:37.607Z,69.41
2022-09-03T00:12:34.094Z,69.52
2022-09-03T00:15:09.425Z,69.58
2022-09-03T00:17:41.050Z,69.37
2022-09-03T00:20:22.167Z,69.75
2022-09-03T00:22:56.195Z,69.47
2022-09-03T00:25:29.011Z,69.85
2022-09-03T00:27:58.801Z,69.42
2022-09-03T00:30:25.912Z,69.48
2022-09-03T00:32:58.363Z,69.50
2022-09-03T00:35:37.686Z,69.38
2022-09-03T00:38:06.128Z,69.20
2022-09-03T00:40:41.977Z,69.22
2022-09-03T00:43:46.756Z,69.62
2022-09-03T00:46:19.569Z,69.48
2022-09-03T00:48:59.163Z,69.55
2022-09-03T00:51:54.869Z,70.14
2022-09-03T00:54:41.918Z,70.11
2022-09-03T00:57:12.075Z,70.25
2022-09-03T00:59:38.737Z,71.20
2022-09-03T01:02:34.131Z,71.11
2022-09-03T01:05:30.267Z,71.53
2022-09-03T01:08:11.887Z,71.76
2022-09-03T01:10:50.691Z,72.51
2022-09-03T01:13:36.160Z,72.52
2022-09-03T01:16:21.088Z,72.79
2022-09-03T01:19:12.639Z,73.02
2022-09-03T01:21:55.261Z,72.29
2022-09-03T01:24:29.889Z,71.67
2022-09-03T01:27:17.873Z,70.98
2022-09-03T01:29:53.874Z,70.39
2022-09-03T01:32:59.826Z,69.84
2022-09-03T01:35:44.020Z,69.77
2022-09-03T01:38:32.806Z,71.43
2022-09-03T01:41:50.619Z,70.99
2022-09-03T01:44:30.098Z,72.18
2022-09-03T01:47:38.092Z,71.94
2022-09-03T01:50:12.990Z,72.05
2022-09-03T01:52:55.501Z,71.60
2022-09-03T01:55:48.091Z,72.33
2022-09-03T01:58:21.587Z,72.54
2022-09-03T02:00:56.785Z,73.49
2022-09-03T02:03:25.880Z,73.46
2022-09-03T02:05:53.153Z,73.69
2022-09-03T02:08:20.674Z,73.50
2022-09-03T02:10:52.487Z,72.81
2022-09-03T02:13:27.331Z,73.27
2022-09-03T02:15:58.208Z,73.53
2022-09-03T02:18:37.781Z,73.97
2022-09-03T02:21:05.420Z,73.60
2022-09-03T02:23:32.492Z,74.24
2022-09-03T02:26:01.910Z,73.63
2022-09-03T02:28:30.854Z,73.17
2022-09-03T02:30:57.920Z,73.36
2022-09-03T02:33:25.455Z,73.35
2022-09-03T02:35:53.225Z,74.25
2022-09-03T02:38:25.756Z,73.42
2022-09-03T02:40:56.199Z,73.81
2022-09-03T02:43:50.305Z,73.73
2022-09-03T02:46:27.826Z,73.94
2022-09-03T02:48:55.075Z,73.80
2022-09-03T02:51:22.062Z,73.90
2022-09-03T02:53:48.901Z,74.34
2022-09-03T02:56:18.121Z,75.75
2022-09-03T02:58:44.864Z,75.88
2022-09-03T03:01:11.768Z,76.12
2022-09-03T03:03:50.902Z,76.08
2022-09-03T03:06:20.841Z,75.96
2022-09-03T03:08:49.787Z,77.18
2022-09-03T03:11:18.405Z,77.29
2022-09-03T03:13:46.431Z,78.33
2022-09-03T03:16:15.091Z,78.34
2022-09-03T03:18:42.141Z,78.54
2022-09-03T03:21:11.940Z,78.40
2022-09-03T03:23:38.769Z,77.54
2022-09-03T03:26:07.803Z,79.38
2022-09-03T03:28:35.520Z,80.27
2022-09-03T03:31:14.494Z,81.09
2022-09-03T03:33:42.109Z,80.36
2022-09-03T03:36:14.900Z,79.41
2022-09-03T03:38:43.250Z,80.24
2022-09-03T03:41:26.373Z,80.93
2022-09-03T03:43:54.994Z,81.12
2022-09-03T03:46:23.941Z,80.40
2022-09-03T03:48:51.837Z,79.43
2022-09-03T03:51:19.291Z,80.17
2022-09-03T03:53:46.912Z,80.83
2022-09-03T03:56:16.350Z,81.10
2022-09-03T03:58:44.244Z,82.26
2022-09-03T04:01:11.046Z,83.02
2022-09-03T04:03:38.367Z,82.95
2022-09-03T04:06:06.360Z,82.12
2022-09-03T04:08:38.278Z,81.99
2022-09-03T04:11:07.788Z,81.30
2022-09-03T04:13:37.720Z,80.61
2022-09-03T04:16:06.133Z,81.48
2022-09-03T04:18:35.226Z,82.03
2022-09-03T04:21:08.166Z,82.69
2022-09-03T04:23:37.872Z,84.22
2022-09-03T04:26:06.048Z,84.63
2022-09-03T04:28:33.274Z,85.00
2022-09-03T04:31:02.158Z,84.64
2022-09-03T04:33:30.741Z,85.13
2022-09-03T04:36:19.187Z,84.87
2022-09-03T04:38:47.235Z,85.70
2022-09-03T04:41:16.765Z,86.79
2022-09-03T04:43:44.353Z,87.10
2022-09-03T04:46:16.175Z,86.87
2022-09-03T04:48:47.597Z,87.15
2022-09-03T04:51:16.767Z,87.57
2022-09-03T04:53:46.355Z,86.74
2022-09-03T04:56:18.462Z,87.11
2022-09-03T04:58:46.122Z,87.55
2022-09-03T05:01:18.162Z,92.40
2022-09-03T05:03:45.537Z,92.79
2022-09-03T05:06:13.021Z,93.77
2022-09-03T05:08:40.370Z,96.07
2022-09-03T05:11:07.966Z,98.61
2022-09-03T05:13:37.042Z,100.00
2022-09-03T05:16:06.770Z,100.00
2022-09-03T05:18:37.603Z,100.00
2022-09-03T05:21:07.448Z,100.00
2022-09-03T05:23:53.004Z,100.00
2022-09-03T05:26:28.874Z,100.00
2022-09-03T05:28:57.693Z,100.00
2022-09-03T05:31:28.109Z,100.00
2022-09-03T05:34:00.459Z,100.00
2022-09-03T05:36:30.000Z,100.00
2022-09-03T05:38:58.798Z,100.00
2022-09-03T05:41:27.464Z,100.00
2022-09-03T05:43:56.153Z,100.00
2022-09-03T05:46:30.154Z,100.00
2022-09-03T05:49:01.978Z,100.00
2022-09-03T05:51:29.900Z,100.00
2022-09-03T05:53:57.875Z,100.00
2022-09-03T05:56:26.902Z,100.00
2022-09-03T05:58:56.356Z,100.00
2022-09-03T06:01:29.069Z,100.00
2022-09-03T06:04:07.337Z,100.00
2022-09-03T06:06:54.544Z,100.00
2022-09-03T06:09:23.372Z,100.00
2022-09-03T06:11:52.440Z,100.00
2022-09-03T06:14:20.155Z,100.00
2022-09-03T06:16:52.952Z,100.00
2022-09-03T06:19:20.335Z,100.00
2022-09-03T06:21:47.445Z,100.00
2022-09-03T06:24:22.571Z,100.00
2022-09-03T06:26:53.255Z,100.00
2022-09-03T06:29:20.870Z,100.00
2022-09-03T06:31:51.308Z,100.00
2022-09-03T06:34:29.609Z,100.00
2022-09-03T06:36:56.310Z,100.00
2022-09-03T06:39:23.170Z,100.00
2022-09-03T06:41:51.805Z,100.00
2022-09-03T06:44:25.330Z,100.00
2022-09-03T06:46:53.461Z,100.00
2022-09-03T06:49:21.314Z,100.00
2022-09-03T06:51:48.105Z,100.00
2022-09-03T06:54:15.860Z,100.00
2022-09-03T06:56:42.606Z,100.00
2022-09-03T06:59:14.636Z,100.00
2022-09-03T07:01:45.195Z,100.00
2022-09-03T07:04:16.514Z,100.00
2022-09-03T07:06:44.296Z,100.00
2022-09-03T07:09:13.378Z,100.00
2022-09-03T07:11:46.911Z,100.00
2022-09-03T07:14:15.584Z,100.00
2022-09-03T07:16:43.445Z,100.00
2022-09-03T07:19:10.299Z,100.00
2022-09-03T07:21:37.310Z,100.00
2022-09-03T07:24:05.658Z,100.00
2022-09-03T07:26:35.306Z,100.00
2022-09-03T07:29:02.989Z,100.00
2022-09-03T07:31:35.321Z,100.00
2022-09-03T07:34:13.369Z,100.00
2022-09-03T07:36:47.729Z,100.00
2022-09-03T07:39:16.749Z,100.00
2022-09-03T07:41:46.091Z,100.00
2022-09-03T07:44:16.232Z,100.00
2022-09-03T07:46:45.434Z,100.00
2022-09-03T07:49:12.360Z,100.00
2022-09-03T07:51:39.793Z,100.00
2022-09-03T07:54:32.846Z,100.00
2022-09-03T07:56:59.673Z,100.00
2022-09-03T07:59:26.611Z,100.00
2022-09-03T08:01:53.410Z,100.00
2022-09-03T08:04:21.810Z,100.00
2022-09-03T08:06:49.640Z,100.00
2022-09-03T08:09:16.442Z,100.00
2022-09-03T08:11:44.074Z,100.00
2022-09-03T08:14:12.575Z,100.00
2022-09-03T08:16:42.318Z,100.00
2022-09-03T08:19:11.214Z,100.00
2022-09-03T08:21:38.210Z,100.00
2022-09-03T08:24:05.685Z,100.00
2022-09-03T08:26:37.806Z,100.00
2022-09-03T08:29:05.865Z,100.00
2022-09-03T08:31:34.080Z,100.00
2022-09-03T08:34:06.817Z,100.00
2022-09-03T08:36:38.785Z,100.00
2022-09-03T08:39:10.964Z,100.00
2022-09-03T08:41:46.900Z,100.00
2022-09-03T08:44:34.735Z,100.00
2022-09-03T08:47:21.935Z,100.00
2022-09-03T08:49:52.236Z,100.00
2022-09-03T08:52:42.179Z,100.00
2022-09-03T08:55:21.207Z,100.00
2022-09-03T08:58:15.740Z,100.00
2022-09-03T09:00:49.035Z,100.00
2022-09-03T09:03:24.944Z,100.00
2022-09-03T09:06:16.736Z,100.00
2022-09-03T09:09:04.630Z,100.00
2022-09-03T09:11:50.748Z,100.00
2022-09-03T09:14:24.547Z,100.00
2022-09-03T09:17:08.464Z,100.00
2022-09-03T09:20:10.434Z,100.00
2022-09-03T09:22:57.450Z,100.00
2022-09-03T09:25:26.538Z,100.00
2022-09-03T09:28:05.056Z,100.00
2022-09-03T09:30:32.890Z,100.00
2022-09-03T09:33:00.654Z,100.00
2022-09-03T09:35:27.516Z,100.00
2022-09-03T09:37:57.616Z,100.00
2022-09-03T09:40:27.114Z,100.00
2022-09-03T09:43:11.711Z,100.00
2022-09-03T09:45:40.841Z,100.00
2022-09-03T09:48:18.526Z,100.00
2022-09-03T09:50:45.380Z,100.00
2022-09-03T09:53:16.457Z,100.00
2022-09-03T09:55:58.090Z,100.00
2022-09-03T09:58:28.332Z,100.00
2022-09-03T10:01:13.115Z,100.00
2022-09-03T10:03:55.285Z,100.00
2022-09-03T10:06:49.655Z,100.00
2022-09-03T10:09:23.354Z,100.00
2022-09-03T10:12:19.581Z,100.00
2022-09-03T10:14:55.703Z,100.00
2022-09-03T10:18:10.629Z,100.00
2022-09-03T10:20:51.791Z,100.00
2022-09-03T10:23:29.806Z,100.00
2022-09-03T10:26:16.881Z,100.00
2022-09-03T10:28:56.085Z,100.00
2022-09-03T10:31:57.792Z,100.00
2022-09-03T10:34:37.521Z,100.00
2022-09-03T10:37:48.906Z,100.00
2022-09-03T10:40:40.220Z,100.00
2022-09-03T10:44:03.122Z,100.00
2022-09-03T10:46:45.487Z,100.00
2022-09-03T10:49:31.182Z,100.00
2022-09-03T10:52:27.984Z,100.00
2022-09-03T10:55:29.478Z,100.00
2022-09-03T10:58:05.483Z,100.00
2022-09-03T11:00:39.926Z,100.00
2022-09-03T11:03:25.454Z,100.00
2022-09-03T11:05:52.138Z,100.00
2022-09-03T11:08:21.924Z,100.00
2022-09-03T11:10:55.116Z,100.00
2022-09-03T11:13:30.058Z,100.00
2022-09-03T11:16:02.073Z,100.00
2022-09-03T11:18:40.875Z,100.00
2022-09-03T11:21:13.031Z,100.00
2022-09-03T11:23:48.135Z,100.00
2022-09-03T11:26:21.226Z,100.00
2022-09-03T11:28:59.830Z,100.00
2022-09-03T11:31:35.650Z,100.00
2022-09-03T11:34:22.168Z,100.00
2022-09-03T11:36:50.539Z,100.00
2022-09-03T11:39:27.448Z,100.00
2022-09-03T11:41:59.719Z,100.00
2022-09-03T11:44:44.716Z,100.00
2022-09-03T11:47:38.383Z,100.00
2022-09-03T11:50:21.000Z,100.00
2022-09-03T11:52:49.506Z,100.00
2022-09-03T11:55:38.291Z,100.00
2022-09-03T11:58:29.471Z,93.86
2022-09-03T12:00:59.043Z,90.07
2022-09-03T12:03:30.035Z,86.80
2022-09-03T12:06:22.145Z,85.71
2022-09-03T12:09:04.081Z,86.15
2022-09-03T12:11:57.582Z,86.97
2022-09-03T12:15:07.596Z,87.65
2022-09-03T12:18:17.406Z,84.57
2022-09-03T12:20:45.120Z,82.57
2022-09-03T12:23:28.249Z,83.10
2022-09-03T12:25:55.470Z,84.48
2022-09-03T12:28:24.983Z,84.24
2022-09-03T12:30:53.548Z,83.05
2022-09-03T12:33:22.200Z,80.98
2022-09-03T12:36:39.273Z,82.44
2022-09-03T12:39:13.397Z,85.13
2022-09-03T12:42:01.906Z,85.82
2022-09-03T12:44:31.408Z,86.18
2022-09-03T12:49:57.432Z,81.79
2022-09-03T12:52:33.499Z,80.26
2022-09-03T12:55:17.428Z,80.40
2022-09-03T12:57:49.520Z,81.04
2022-09-03T13:00:21.084Z,77.16
2022-09-03T13:02:56.552Z,79.94
2022-09-03T13:05:33.624Z,78.99
2022-09-03T13:08:05.417Z,73.89
2022-09-03T13:10:38.139Z,75.94
2022-09-03T13:13:28.194Z,77.89
2022-09-03T13:16:15.446Z,74.77
2022-09-03T13:18:48.211Z,71.43
2022-09-03T13:21:48.839Z,70.87
2022-09-03T13:24:54.109Z,72.92
2022-09-03T13:27:41.639Z,76.65
2022-09-03T13:30:17.320Z,80.49
2022-09-03T13:33:01.778Z,84.32
2022-09-03T13:35:40.123Z,85.57
2022-09-03T13:39:03.178Z,91.04
2022-09-03T13:41:43.907Z,95.07
2022-09-03T13:44:41.001Z,96.09
2022-09-03T13:47:37.071Z,97.97
2022-09-03T13:50:22.430Z,100.00
2022-09-03T13:53:09.549Z,100.00
2022-09-03T13:55:48.238Z,97.26
2022-09-03T13:58:24.327Z,91.92
2022-09-03T14:01:01.309Z,92.96
2022-09-03T14:03:48.995Z,90.67
2022-09-03T14:06:34.213Z,86.30
2022-09-03T14:09:24.719Z,87.12
2022-09-03T14:12:02.596Z,85.43
2022-09-03T14:14:46.772Z,83.16
2022-09-03T14:17:25.701Z,80.95
2022-09-03T14:19:52.359Z,80.44
2022-09-03T14:22:24.654Z,80.65
2022-09-03T14:25:09.163Z,83.38
2022-09-03T14:27:36.625Z,91.06
2022-09-03T14:30:09.510Z,94.72
2022-09-03T14:32:57.434Z,94.77
2022-09-03T14:35:30.943Z,94.97
2022-09-03T14:38:25.775Z,92.81
2022-09-03T14:41:03.186Z,92.88
2022-09-03T14:43:49.420Z,92.78
2022-09-03T14:46:33.372Z,95.30
2022-09-03T14:49:18.796Z,98.35
2022-09-03T14:52:01.753Z,100.00
2022-09-03T14:54:37.389Z,100.00
2022-09-03T14:57:04.113Z,100.00
2022-09-03T14:59:59.189Z,100.00
2022-09-03T15:02:44.173Z,100.00
2022-09-03T15:05:12.243Z,100.00
2022-09-03T15:07:46.036Z,100.00
2022-09-03T15:10:37.712Z,95.90
2022-09-03T15:13:20.131Z,87.69
2022-09-03T15:16:30.014Z,91.95
2022-09-03T15:19:07.148Z,97.39
2022-09-03T15:22:03.766Z,100.00
2022-09-03T15:24:51.732Z,100.00
2022-09-03T15:27:45.535Z,100.00
2022-09-03T15:30:15.624Z,100.00
2022-09-03T15:33:10.029Z,100.00
2022-09-03T15:35:41.420Z,100.00
2022-09-03T15:38:37.990Z,100.00
2022-09-03T15:41:20.742Z,100.00
2022-09-03T15:43:51.116Z,100.00
2022-09-03T15:46:29.941Z,100.00
2022-09-03T15:49:03.402Z,100.00
2022-09-03T15:51:35.569Z,100.00
2022-09-03T15:54:12.680Z,100.00
2022-09-03T15:57:02.819Z,100.00
2022-09-03T15:59:49.608Z,100.00
2022-09-03T16:02:24.342Z,100.00
2022-09-03T16:05:16.322Z,100.00
2022-09-03T16:08:03.097Z,100.00
2022-09-03T16:10:42.790Z,100.00
2022-09-03T16:13:28.991Z,100.00
2022-09-03T16:16:52.720Z,100.00
2022-09-03T16:19:29.311Z,100.00
2022-09-03T16:22:15.088Z,100.00
2022-09-03T16:24:47.547Z,100.00
2022-09-03T16:27:24.805Z,100.00
2022-09-03T16:30:13.071Z,100.00
2022-09-03T16:32:58.418Z,100.00
2022-09-03T16:35:43.109Z,100.00
2022-09-03T16:38:17.645Z,100.00
2022-09-03T16:41:19.716Z,100.00
2022-09-03T16:44:06.014Z,100.00
2022-09-03T16:46:58.519Z,100.00
2022-09-03T16:49:36.037Z,100.00
2022-09-03T16:52:37.891Z,100.00
2022-09-03T16:55:22.629Z,100.00
2022-09-03T16:58:08.124Z,100.00
2022-09-03T17:01:01.274Z,100.00
2022-09-03T17:03:55.685Z,100.00
2022-09-03T17:06:54.979Z,100.00
2022-09-03T17:09:27.798Z,100.00
2022-09-03T17:12:26.142Z,100.00
2022-09-03T17:15:01.801Z,100.00
2022-09-03T17:18:08.667Z,100.00
2022-09-03T17:20:53.877Z,100.00
2022-09-03T17:24:05.092Z,100.00
2022-09-03T17:26:47.477Z,100.00
2022-09-03T17:29:45.219Z,100.00
2022-09-03T17:32:12.229Z,100.00
2022-09-03T17:34:51.183Z,100.00
2022-09-03T17:37:56.586Z,97.71
2022-09-03T17:40:55.973Z,100.00
2022-09-03T17:44:01.464Z,100.00
2022-09-03T17:46:35.544Z,100.00
2022-09-03T17:49:13.477Z,100.00
2022-09-03T17:51:50.482Z,100.00
2022-09-03T17:54:22.959Z,100.00
2022-09-03T17:56:55.546Z,100.00
2022-09-03T17:59:29.519Z,100.00
2022-09-03T18:02:16.963Z,100.00
2022-09-03T18:04:51.774Z,100.00
2022-09-03T18:07:28.155Z,100.00
2022-09-03T18:10:03.714Z,100.00
2022-09-03T18:12:39.460Z,100.00
2022-09-03T18:15:21.314Z,100.00
2022-09-03T18:17:57.649Z,100.00
2022-09-03T18:20:46.027Z,100.00
2022-09-03T18:23:44.308Z,100.00
2022-09-03T18:26:39.744Z,100.00
2022-09-03T18:29:52.420Z,100.00
2022-09-03T18:32:39.999Z,100.00
2022-09-03T18:35:27.454Z,100.00
2022-09-03T18:38:13.155Z,100.00
2022-09-03T18:41:11.108Z,100.00
2022-09-03T18:44:02.402Z,100.00
2022-09-03T18:48:01.601Z,100.00
2022-09-03T18:50:22.764Z,100.00
2022-09-03T18:53:47.135Z,100.00
2022-09-03T18:56:38.886Z,100.00
2022-09-03T18:59:48.848Z,100.00
2022-09-03T19:02:55.715Z,100.00
2022-09-03T19:06:01.649Z,100.00
2022-09-03T19:08:55.666Z,100.00
2022-09-03T19:12:09.553Z,100.00
2022-09-03T19:15:16.491Z,100.00
2022-09-03T19:18:29.500Z,100.00
2022-09-03T19:21:33.478Z,100.00
2022-09-03T19:24:21.101Z,100.00
2022-09-03T19:27:51.744Z,100.00
2022-09-03T19:31:11.260Z,100.00
2022-09-03T19:34:09.034Z,100.00
2022-09-03T19:37:10.366Z,100.00
2022-09-03T19:40:10.864Z,100.00
2022-09-03T19:43:02.103Z,100.00
2022-09-03T19:46:10.696Z,100.00
2022-09-03T19:49:31.599Z,100.00
2022-09-03T19:52:27.911Z,100.00
2022-09-03T19:55:16.402Z,100.00
2022-09-03T19:58:20.435Z,100.00
2022-09-03T20:01:12.487Z,100.00
2022-09-03T20:03:58.261Z,100.00
2022-09-03T20:06:43.972Z,100.00
2022-09-03T20:09:35.811Z,100.00
2022-09-03T20:12:07.371Z,100.00
2022-09-03T20:14:37.473Z,100.00
2022-09-03T20:17:20.293Z,100.00
2022-09-03T20:20:01.338Z,100.00
2022-09-03T20:22:33.949Z,100.00
2022-09-03T20:25:27.189Z,100.00
2022-09-03T20:28:30.316Z,100.00
2022-09-03T20:31:00.092Z,100.00
2022-09-03T20:33:27.029Z,100.00
2022-09-03T20:36:20.991Z,100.00
2022-09-03T20:38:59.628Z,100.00
2022-09-03T20:41:26.397Z,100.00
2022-09-03T20:44:01.954Z,100.00
2022-09-03T20:47:02.125Z,100.00
2022-09-03T20:49:40.428Z,100.00
2022-09-03T20:52:33.626Z,100.00
2022-09-03T20:55:16.464Z,100.00
2022-09-03T20:57:58.679Z,100.00
2022-09-03T21:00:26.502Z,100.00
2022-09-03T21:03:15.939Z,100.00
2022-09-03T21:05:57.355Z,100.00
2022-09-03T21:08:46.234Z,100.00
2022-09-03T21:11:40.904Z,100.00
2022-09-03T21:14:14.560Z,100.00
2022-09-03T21:16:41.262Z,100.00
2022-09-03T21:19:37.678Z,100.00
2022-09-03T21:22:23.979Z,100.00
2022-09-03T21:25:00.138Z,100.00
2022-09-03T21:27:35.525Z,100.00
2022-09-03T21:30:12.973Z,100.00
2022-09-03T21:32:39.767Z,100.00
2022-09-03T21:35:16.240Z,100.00
2022-09-03T21:38:17.564Z,100.00
2022-09-03T21:41:12.569Z,100.00
2022-09-03T21:44:07.478Z,100.00
2022-09-03T21:46:49.327Z,100.00
2022-09-03T21:49:25.176Z,100.00
2022-09-03T21:51:58.722Z,100.00
2022-09-03T21:54:29.029Z,100.00
2022-09-03T21:57:04.536Z,100.00
2022-09-03T21:59:49.345Z,100.00
2022-09-03T22:02:26.495Z,100.00
2022-09-03T22:04:55.032Z,100.00
2022-09-03T22:07:21.767Z,100.00
2022-09-03T22:10:26.002Z,100.00
2022-09-03T22:13:09.167Z,100.00
2022-09-03T22:15:37.993Z,100.00
2022-09-03T22:18:28.666Z,100.00
2022-09-03T22:21:02.252Z,100.00
2022-09-03T22:23:44.290Z,100.00
2022-09-03T22:26:49.441Z,100.00
2022-09-03T22:29:49.214Z,100.00
2022-09-03T22:32:33.832Z,100.00
2022-09-03T22:35:22.319Z,100.00
2022-09-03T22:38:07.068Z,100.00
2022-09-03T22:41:03.187Z,100.00
2022-09-03T22:43:39.526Z,100.00
2022-09-03T22:46:20.488Z,100.00
2022-09-03T22:49:08.848Z,100.00
2022-09-03T22:52:04.544Z,100.00
2022-09-03T22:55:21.290Z,100.00
2022-09-03T22:57:58.800Z,100.00
2022-09-03T23:00:26.437Z,100.00
2022-09-03T23:03:08.092Z,100.00
2022-09-03T23:06:17.383Z,100.00
2022-09-03T23:08:52.328Z,100.00
2022-09-03T23:11:25.537Z,100.00
2022-09-03T23:14:16.247Z,100.00
2022-09-03T23:16:52.788Z,100.00
2022-09-03T23:22:01.519Z,100.00
2022-09-03T23:24:32.351Z,100.00
2022-09-03T23:27:03.627Z,100.00
2022-09-03T23:29:36.264Z,100.00
2022-09-03T23:32:06.210Z,100.00
2022-09-03T23:34:33.544Z,100.00
2022-09-03T23:37:40.047Z,100.00
2022-09-03T23:40:18.785Z,100.00
2022-09-03T23:43:13.412Z,100.00
2022-09-03T23:45:49.297Z,100.00
2022-09-03T23:48:21.911Z,100.00
2022-09-03T23:51:12.802Z,100.00
2022-09-03T23:53:45.503Z,100.00
2022-09-03T23:56:31.162Z,100.00
2022-09-03T23:59:22.756Z,100.00
